createdAt,value
2023-05-19T00:02:44.150Z,12.77
2023-05-19T00:05:46.324Z,11.40
2023-05-19T00:08:49.614Z,11.07
2023-05-19T00:11:51.530Z,15.68
2023-05-19T00:14:53.394Z,11.95
2023-05-19T00:17:55.584Z,11.15
2023-05-19T00:20:57.295Z,8.82
2023-05-19T00:23:59.245Z,12.07
2023-05-19T00:27:00.860Z,8.07
2023-05-19T00:30:02.482Z,4.88
2023-05-19T00:33:04.203Z,7.80
2023-05-19T00:36:06.447Z,3.67
2023-05-19T00:39:08.102Z,3.58
2023-05-19T00:42:09.740Z,3.78
2023-05-19T00:45:11.326Z,5.10
2023-05-19T00:48:12.966Z,4.82
2023-05-19T00:51:17.164Z,4.28
2023-05-19T00:54:20.658Z,3.80
2023-05-19T00:57:22.508Z,4.32
2023-05-19T01:00:24.753Z,3.30
2023-05-19T01:03:26.639Z,4.18
2023-05-19T01:06:29.637Z,5.00
2023-05-19T01:09:32.280Z,3.60
2023-05-19T01:12:34.887Z,3.85
2023-05-19T01:15:52.245Z,3.70
2023-05-19T01:19:12.367Z,3.03
2023-05-19T01:22:42.829Z,5.00
2023-05-19T01:26:13.756Z,4.38
2023-05-19T01:29:35.562Z,3.20
2023-05-19T01:32:41.292Z,4.43
2023-05-19T01:35:44.135Z,5.53
2023-05-19T01:38:47.408Z,4.95
2023-05-19T01:41:49.382Z,3.85
2023-05-19T01:44:52.148Z,3.95
2023-05-19T01:47:56.924Z,4.40
2023-05-19T01:50:58.937Z,3.65
2023-05-19T01:54:00.719Z,4.53
2023-05-19T01:57:41.109Z,2.75
2023-05-19T02:00:53.342Z,3.10
2023-05-19T02:04:19.795Z,2.67
2023-05-19T02:07:44.417Z,3.47
2023-05-19T02:10:51.680Z,2.60
2023-05-19T02:13:57.355Z,4.00
2023-05-19T02:16:59.582Z,3.47
2023-05-19T02:20:01.191Z,5.15
2023-05-19T02:23:02.832Z,4.55
2023-05-19T02:26:04.855Z,2.80
2023-05-19T02:29:06.532Z,3.55
2023-05-19T02:32:08.280Z,4.38
2023-05-19T02:35:10.131Z,5.25
2023-05-19T02:38:11.709Z,3.40
2023-05-19T02:41:13.341Z,3.97
2023-05-19T02:44:15.071Z,5.75
2023-05-19T02:47:16.646Z,4.82
2023-05-19T02:50:18.287Z,3.47
2023-05-19T02:53:19.866Z,3.65
2023-05-19T02:56:21.813Z,3.70
2023-05-19T02:59:25.480Z,3.00
2023-05-19T03:02:27.444Z,2.75
2023-05-19T03:05:30.363Z,4.97
2023-05-19T03:08:32.050Z,3.25
2023-05-19T03:11:33.800Z,2.85
2023-05-19T03:14:37.776Z,4.03
2023-05-19T03:17:39.542Z,2.63
2023-05-19T03:20:42.529Z,3.30
2023-05-19T03:23:44.139Z,2.25
2023-05-19T03:26:46.050Z,3.33
2023-05-19T03:29:47.676Z,3.40
2023-05-19T03:32:49.412Z,4.63
2023-05-19T03:35:53.036Z,3.95
2023-05-19T03:38:54.674Z,3.42
2023-05-19T03:41:56.447Z,3.88
2023-05-19T03:44:58.039Z,5.13
2023-05-19T03:47:59.717Z,4.10
2023-05-19T03:51:01.444Z,5.15
2023-05-19T03:54:03.530Z,4.90
2023-05-19T03:57:05.946Z,4.35
2023-05-19T04:00:08.336Z,3.85
2023-05-19T04:03:10.095Z,4.47
2023-05-19T04:06:12.966Z,5.50
2023-05-19T04:09:15.986Z,4.60
2023-05-19T04:12:17.573Z,4.53
2023-05-19T04:15:19.203Z,4.80
2023-05-19T04:18:21.030Z,4.55
2023-05-19T04:21:22.862Z,4.45
2023-05-19T04:24:26.804Z,4.40
2023-05-19T04:27:30.000Z,3.47
2023-05-19T04:30:31.935Z,3.15
2023-05-19T04:33:34.008Z,3.65
2023-05-19T04:36:35.761Z,5.13
2023-05-19T04:39:43.108Z,3.58
2023-05-19T04:42:46.251Z,3.38
2023-05-19T04:45:50.224Z,2.95
2023-05-19T04:48:53.211Z,6.40
2023-05-19T04:51:56.643Z,3.95
2023-05-19T04:54:58.234Z,3.30
2023-05-19T04:57:59.867Z,3.13
2023-05-19T05:01:01.473Z,3.38
2023-05-19T05:04:03.160Z,3.30
2023-05-19T05:07:05.001Z,4.00
2023-05-19T05:10:07.348Z,3.17
2023-05-19T05:13:11.206Z,3.78
2023-05-19T05:16:14.161Z,3.40
2023-05-19T05:19:16.486Z,2.72
2023-05-19T05:22:18.475Z,2.15
2023-05-19T05:25:20.819Z,2.40
2023-05-19T05:28:22.713Z,3.08
2023-05-19T05:31:24.304Z,2.33
2023-05-19T05:34:26.047Z,1.83
2023-05-19T05:37:28.011Z,3.55
2023-05-19T05:40:29.735Z,3.53
2023-05-19T05:43:31.364Z,2.25
2023-05-19T05:46:33.125Z,3.95
2023-05-19T05:49:38.208Z,3.35
2023-05-19T05:52:41.538Z,2.95
2023-05-19T05:55:43.550Z,2.38
2023-05-19T05:58:45.275Z,2.78
2023-05-19T06:01:46.862Z,3.17
2023-05-19T06:04:48.816Z,2.95
2023-05-19T06:07:50.404Z,3.75
2023-05-19T06:10:52.010Z,4.43
2023-05-19T06:13:53.634Z,3.35
2023-05-19T06:16:55.689Z,2.95
2023-05-19T06:19:57.420Z,3.95
2023-05-19T06:23:01.016Z,2.70
2023-05-19T06:26:02.655Z,4.22
2023-05-19T06:29:04.336Z,4.00
2023-05-19T06:32:05.952Z,4.78
2023-05-19T06:35:07.946Z,4.32
2023-05-19T06:38:09.573Z,3.30
2023-05-19T06:41:11.136Z,5.55
2023-05-19T06:44:12.744Z,4.38
2023-05-19T06:47:14.419Z,4.75
2023-05-19T06:50:16.279Z,5.78
2023-05-19T06:53:19.996Z,4.43
2023-05-19T06:56:22.983Z,3.38
2023-05-19T06:59:24.649Z,3.75
2023-05-19T07:02:26.381Z,6.40
2023-05-19T07:05:28.082Z,3.95
2023-05-19T07:08:29.708Z,4.82
2023-05-19T07:11:31.386Z,4.35
2023-05-19T07:14:33.103Z,4.63
2023-05-19T07:17:34.811Z,4.63
2023-05-19T07:20:36.465Z,5.40
2023-05-19T07:23:38.044Z,4.00
2023-05-19T07:26:40.545Z,4.45
2023-05-19T07:29:42.180Z,4.95
2023-05-19T07:32:43.866Z,4.38
2023-05-19T07:35:46.359Z,4.13
2023-05-19T07:38:49.039Z,5.75
2023-05-19T07:41:54.304Z,3.63
2023-05-19T07:44:56.160Z,4.57
2023-05-19T07:47:57.912Z,6.32
2023-05-19T07:50:59.540Z,5.45
2023-05-19T07:54:01.177Z,4.20
2023-05-19T07:57:02.774Z,4.03
2023-05-19T08:00:07.936Z,6.88
2023-05-19T08:03:10.088Z,3.58
2023-05-19T08:06:11.933Z,3.58
2023-05-19T08:09:13.557Z,6.68
2023-05-19T08:12:15.157Z,5.45
2023-05-19T08:15:16.889Z,5.30
2023-05-19T08:18:18.612Z,7.40
2023-05-19T08:21:20.286Z,5.60
2023-05-19T08:24:21.859Z,4.95
2023-05-19T08:27:23.663Z,25.33
2023-05-19T08:30:26.447Z,4.20
2023-05-19T08:33:28.363Z,5.22
2023-05-19T08:36:30.731Z,5.80
2023-05-19T08:39:34.209Z,25.88
2023-05-19T08:42:35.871Z,7.72
2023-05-19T08:45:41.010Z,7.00
2023-05-19T08:48:44.275Z,5.50
2023-05-19T08:52:17.291Z,11.75
2023-05-19T08:55:21.845Z,6.53
2023-05-19T08:58:23.561Z,4.15
2023-05-19T09:01:26.772Z,4.88
2023-05-19T09:04:30.069Z,5.05
2023-05-19T09:07:34.981Z,4.43
2023-05-19T09:10:36.618Z,5.57
2023-05-19T09:13:44.434Z,4.97
2023-05-19T09:16:49.812Z,4.10
2023-05-19T09:19:51.530Z,3.88
2023-05-19T09:22:53.215Z,4.47
2023-05-19T09:25:56.281Z,3.05
2023-05-19T09:28:58.431Z,4.00
2023-05-19T09:32:06.078Z,3.30
2023-05-19T09:35:08.238Z,4.28
2023-05-19T09:38:09.833Z,2.50
2023-05-19T09:41:14.681Z,4.57
2023-05-19T09:44:30.476Z,5.03
2023-05-19T09:47:39.813Z,4.65
2023-05-19T09:50:44.138Z,5.30
2023-05-19T09:53:46.585Z,3.72
2023-05-19T09:56:58.796Z,5.97
2023-05-19T10:00:00.723Z,4.93
2023-05-19T10:03:04.945Z,5.53
2023-05-19T10:06:09.205Z,5.60
2023-05-19T10:09:11.240Z,6.65
2023-05-19T10:12:13.514Z,7.78
2023-05-19T10:15:22.185Z,5.80
2023-05-19T10:18:25.879Z,6.50
2023-05-19T10:21:27.826Z,6.55
2023-05-19T10:24:29.491Z,7.00
2023-05-19T10:27:32.794Z,6.97
2023-05-19T10:30:46.494Z,6.13
2023-05-19T10:34:09.643Z,5.93
2023-05-19T10:37:22.199Z,6.10
2023-05-19T10:40:29.780Z,6.63
2023-05-19T10:43:50.914Z,6.72
2023-05-19T10:46:54.203Z,4.65
2023-05-19T10:50:00.822Z,5.00
2023-05-19T10:53:02.822Z,8.40
2023-05-19T10:56:04.708Z,6.40
2023-05-19T10:59:06.423Z,6.70
2023-05-19T11:02:09.046Z,4.75
2023-05-19T11:05:16.809Z,5.25
2023-05-19T11:08:32.547Z,5.78
2023-05-19T11:11:48.367Z,4.82
2023-05-19T11:14:54.394Z,4.85
2023-05-19T11:17:56.891Z,4.05
2023-05-19T11:21:02.378Z,7.07
2023-05-19T11:24:08.940Z,4.97
2023-05-19T11:27:31.736Z,4.55
2023-05-19T11:30:33.586Z,5.55
2023-05-19T11:33:36.132Z,5.75
2023-05-19T11:36:40.044Z,5.85
2023-05-19T11:39:43.877Z,5.75
2023-05-19T11:42:45.608Z,5.85
2023-05-19T11:45:47.263Z,5.05
2023-05-19T11:48:50.591Z,5.43
2023-05-19T11:51:52.296Z,7.30
2023-05-19T11:54:54.104Z,6.45
2023-05-19T11:58:03.874Z,5.10
2023-05-19T12:01:07.054Z,6.47
2023-05-19T12:04:10.314Z,5.70
2023-05-19T12:07:13.496Z,5.32
2023-05-19T12:10:15.764Z,9.05
2023-05-19T12:13:17.417Z,7.60
2023-05-19T12:16:21.077Z,7.55
2023-05-19T12:19:24.236Z,6.75
2023-05-19T12:22:26.042Z,5.28
2023-05-19T12:25:29.224Z,6.45
2023-05-19T12:28:33.807Z,7.75
2023-05-19T12:31:35.973Z,7.68
2023-05-19T12:34:38.710Z,6.30
2023-05-19T12:37:43.128Z,9.32
2023-05-19T12:40:44.920Z,7.88
2023-05-19T12:43:46.608Z,7.68
2023-05-19T12:46:52.219Z,11.27
2023-05-19T12:50:00.423Z,6.15
2023-05-19T12:53:02.082Z,8.52
2023-05-19T12:56:14.362Z,7.30
2023-05-19T12:59:38.891Z,10.68
2023-05-19T13:03:05.403Z,5.97
2023-05-19T13:06:07.503Z,8.68
2023-05-19T13:09:09.175Z,6.57
2023-05-19T13:12:10.752Z,4.05
2023-05-19T13:15:12.403Z,4.90
2023-05-19T13:18:14.532Z,4.95
2023-05-19T13:21:16.123Z,4.80
2023-05-19T13:24:17.783Z,3.75
2023-05-19T13:27:19.655Z,4.32
2023-05-19T13:30:22.112Z,4.18
2023-05-19T13:33:23.706Z,5.50
2023-05-19T13:36:27.926Z,5.35
2023-05-19T13:39:29.585Z,3.20
2023-05-19T13:42:33.052Z,6.75
2023-05-19T13:45:34.795Z,2.78
2023-05-19T13:48:36.477Z,3.33
2023-05-19T13:51:39.670Z,3.60
2023-05-19T13:54:41.328Z,7.78
2023-05-19T13:57:44.092Z,3.40
2023-05-19T14:00:45.920Z,3.25
2023-05-19T14:03:47.624Z,3.72
2023-05-19T14:06:49.274Z,3.63
2023-05-19T14:09:52.496Z,5.75
2023-05-19T14:13:18.213Z,4.13
2023-05-19T14:16:16.298Z,4.88
2023-05-19T14:19:18.066Z,4.00
2023-05-19T14:22:19.730Z,3.92
2023-05-19T14:25:21.750Z,5.15
2023-05-19T14:28:23.369Z,3.70
2023-05-19T14:31:25.876Z,3.20
2023-05-19T14:34:27.874Z,3.95
2023-05-19T14:37:31.775Z,3.33
2023-05-19T14:40:33.714Z,5.97
2023-05-19T14:43:35.518Z,2.50
2023-05-19T14:46:37.248Z,3.88
2023-05-19T14:49:38.929Z,3.63
2023-05-19T14:52:40.535Z,4.85
2023-05-19T14:55:42.802Z,4.32
2023-05-19T14:58:44.458Z,3.85
2023-05-19T15:01:46.141Z,3.60
2023-05-19T15:04:47.877Z,3.30
2023-05-19T15:07:50.594Z,4.53
2023-05-19T15:10:52.239Z,2.90
2023-05-19T15:13:54.089Z,5.75
2023-05-19T15:16:55.793Z,3.53
2023-05-19T15:19:57.413Z,3.83
2023-05-19T15:22:59.068Z,5.65
2023-05-19T15:26:00.771Z,3.13
2023-05-19T15:29:02.425Z,3.25
2023-05-19T15:32:04.137Z,3.25
2023-05-19T15:35:06.253Z,3.53
2023-05-19T15:38:07.914Z,4.57
2023-05-19T15:41:10.175Z,3.22
2023-05-19T15:44:11.988Z,3.30
2023-05-19T15:47:13.844Z,3.08
2023-05-19T15:50:16.784Z,3.63
2023-05-19T15:53:20.206Z,4.70
2023-05-19T15:56:22.467Z,2.63
2023-05-19T15:59:24.078Z,5.00
2023-05-19T16:02:25.823Z,3.47
2023-05-19T16:05:27.504Z,3.80
2023-05-19T16:08:29.605Z,3.03
2023-05-19T16:11:31.247Z,3.38
2023-05-19T16:14:36.454Z,2.78
2023-05-19T16:17:38.158Z,3.40
2023-05-19T16:20:39.823Z,2.50
2023-05-19T16:23:41.445Z,4.78
2023-05-19T16:26:43.106Z,2.83
2023-05-19T16:29:44.704Z,2.33
2023-05-19T16:32:46.469Z,2.83
2023-05-19T16:35:48.131Z,6.75
2023-05-19T16:38:49.799Z,2.20
2023-05-19T16:41:52.850Z,5.60
2023-05-19T16:44:54.311Z,2.90
2023-05-19T16:47:56.069Z,3.95
2023-05-19T16:50:57.756Z,3.42
2023-05-19T16:53:59.991Z,3.35
2023-05-19T16:57:02.389Z,3.78
2023-05-19T17:00:04.561Z,4.38
2023-05-19T17:03:06.447Z,3.45
2023-05-19T17:06:08.178Z,4.95
2023-05-19T17:09:09.753Z,3.75
2023-05-19T17:12:11.376Z,3.35
2023-05-19T17:15:13.078Z,4.15
2023-05-19T17:18:16.056Z,4.78
2023-05-19T17:21:17.837Z,5.88
2023-05-19T17:24:19.487Z,4.28
2023-05-19T17:27:21.209Z,4.00
2023-05-19T17:30:22.808Z,3.75
2023-05-19T17:33:24.643Z,6.25
2023-05-19T17:36:26.492Z,5.65
2023-05-19T17:39:28.196Z,6.85
2023-05-19T17:42:31.612Z,5.28
2023-05-19T17:45:33.281Z,5.03
2023-05-19T17:48:36.286Z,4.20
2023-05-19T17:51:38.356Z,5.28
2023-05-19T17:54:40.187Z,7.90
2023-05-19T17:57:44.722Z,9.00
2023-05-19T18:00:46.585Z,6.00
2023-05-19T18:03:49.831Z,7.93
2023-05-19T18:06:52.659Z,6.32
2023-05-19T18:09:56.088Z,5.00
2023-05-19T18:12:57.785Z,6.30
2023-05-19T18:15:59.756Z,6.97
2023-05-19T18:19:02.045Z,8.07
2023-05-19T18:22:03.886Z,5.95
2023-05-19T18:25:06.077Z,5.13
2023-05-19T18:28:07.905Z,7.03
2023-05-19T18:31:11.035Z,7.90
2023-05-19T18:34:14.060Z,6.55
2023-05-19T18:37:15.733Z,9.48
2023-05-19T18:40:17.515Z,9.35
2023-05-19T18:43:19.404Z,9.23
2023-05-19T18:46:21.050Z,7.93
2023-05-19T18:49:24.965Z,6.75
2023-05-19T18:52:28.678Z,7.82
2023-05-19T18:55:30.479Z,9.98
2023-05-19T18:58:32.538Z,8.38
2023-05-19T19:01:34.202Z,11.55
2023-05-19T19:04:35.826Z,9.35
2023-05-19T19:07:44.808Z,8.88
2023-05-19T19:10:46.445Z,10.93
2023-05-19T19:13:51.317Z,14.25
2023-05-19T19:16:53.140Z,15.15
2023-05-19T19:19:54.836Z,11.93
2023-05-19T19:22:56.922Z,14.10
2023-05-19T19:25:58.677Z,14.02
2023-05-19T19:29:00.448Z,11.00
2023-05-19T19:32:02.112Z,15.70
2023-05-19T19:35:03.916Z,14.00
2023-05-19T19:38:05.516Z,11.35
2023-05-19T19:41:07.223Z,14.57
2023-05-19T19:44:09.008Z,10.98
2023-05-19T19:47:11.166Z,13.73
2023-05-19T19:50:13.016Z,18.90
2023-05-19T19:53:15.597Z,10.63
2023-05-19T19:56:17.262Z,15.70
2023-05-19T19:59:19.588Z,13.10
2023-05-19T20:02:21.851Z,11.73
2023-05-19T20:05:23.526Z,14.82
2023-05-19T20:08:25.793Z,11.40
2023-05-19T20:11:27.415Z,12.20
2023-05-19T20:14:29.069Z,12.10
2023-05-19T20:17:30.803Z,11.15
2023-05-19T20:20:32.556Z,10.40
2023-05-19T20:23:34.291Z,15.57
2023-05-19T20:26:36.299Z,13.88
2023-05-19T20:29:38.008Z,16.42
2023-05-19T20:32:40.190Z,15.15
2023-05-19T20:35:42.008Z,11.38
2023-05-19T20:38:43.670Z,15.05
2023-05-19T20:41:45.390Z,12.30
2023-05-19T20:44:47.005Z,12.38
2023-05-19T20:47:48.639Z,15.30
2023-05-19T20:50:51.237Z,13.07
2023-05-19T20:53:53.434Z,16.40
2023-05-19T20:56:55.074Z,13.88
2023-05-19T20:59:56.738Z,13.57
2023-05-19T21:02:58.423Z,14.65
2023-05-19T21:06:00.915Z,13.25
2023-05-19T21:09:05.186Z,13.70
2023-05-19T21:12:07.065Z,14.52
2023-05-19T21:15:09.806Z,13.13
2023-05-19T21:18:12.424Z,12.07
2023-05-19T21:21:14.307Z,14.05
2023-05-19T21:24:16.122Z,12.05
2023-05-19T21:27:17.766Z,11.80
2023-05-19T21:30:19.434Z,11.63
2023-05-19T21:33:21.067Z,11.90
2023-05-19T21:36:23.499Z,10.25
2023-05-19T21:39:25.149Z,9.57
2023-05-19T21:42:26.790Z,10.15
2023-05-19T21:45:28.685Z,10.45
2023-05-19T21:48:30.980Z,10.05
2023-05-19T21:51:35.083Z,8.88
2023-05-19T21:54:36.699Z,10.25
2023-05-19T21:57:38.468Z,9.77
2023-05-19T22:00:40.551Z,8.98
2023-05-19T22:03:42.289Z,8.63
2023-05-19T22:06:44.075Z,10.63
2023-05-19T22:09:48.132Z,9.27
2023-05-19T22:12:50.506Z,12.35
2023-05-19T22:15:52.350Z,10.45
2023-05-19T22:18:54.013Z,11.38
2023-05-19T22:22:01.724Z,12.82
2023-05-19T22:25:07.937Z,15.10
2023-05-19T22:28:09.621Z,9.48
2023-05-19T22:31:11.229Z,10.23
2023-05-19T22:34:14.495Z,12.27
2023-05-19T22:37:16.216Z,13.60
2023-05-19T22:40:18.171Z,10.80
2023-05-19T22:43:19.790Z,12.82
2023-05-19T22:46:21.524Z,12.18
2023-05-19T22:49:23.257Z,13.90
2023-05-19T22:52:24.942Z,11.38
2023-05-19T22:55:26.739Z,13.45
2023-05-19T22:58:28.325Z,12.23
2023-05-19T23:01:30.003Z,15.15
2023-05-19T23:04:32.455Z,14.20
2023-05-19T23:07:34.146Z,11.27
2023-05-19T23:10:35.890Z,12.90
2023-05-19T23:13:37.664Z,15.23
2023-05-19T23:16:39.249Z,15.15
2023-05-19T23:19:40.962Z,15.15
2023-05-19T23:22:42.594Z,13.70
2023-05-19T23:25:44.221Z,16.60
2023-05-19T23:28:45.952Z,19.60
2023-05-19T23:31:47.637Z,17.83
2023-05-19T23:34:49.263Z,18.52
2023-05-19T23:37:50.940Z,21.27
2023-05-19T23:40:52.572Z,19.83
2023-05-19T23:43:54.496Z,20.42
2023-05-19T23:46:56.307Z,21.08
2023-05-19T23:49:57.897Z,18.02
2023-05-19T23:53:00.716Z,17.90
2023-05-19T23:56:02.319Z,17.23
2023-05-19T23:59:03.929Z,19.58
